SBOSBO SOF / LBSF
Speedbird OnlineSpeedbird Online SOF / LBSF

Sofia Airport
02:10 -9.1°C

Location Sofia, Bulgaria
Latitude: 42.696693420410156
Longitude: 23.411436080932617
Web Airport Website | Wikipedia
Altitude 531 Meter / 1742 Feet
Distance 2,004 KM / 1,245 Miles
from London.
Time Zone UTC +2 hours (Europe/Sofia)
Codes IATA: SOF
ICAO: LBSF
Currency £1 equals BGN 2.20
Runways
RunwayLength (m)Surface
093600Asphalt
273600Asphalt
Radio
TypeDescriptionFrequency
APPAPP123.7
ATISATIS124.05
TWRTWR118.1
Live ATC
METAR LBSF 081430Z 04009KT 010V070 9999 SCT049 M03/M09 Q1037 NOSIG
TAF TAF LBSF 081100Z 0812/0912 07010KT 9999 SCT040 SCT060 BECMG 0818/0820 VRB04KT TEMPO 0900/0907 3000 BR SCT010 BKN015
Weather As Of 09 Feb 2023 02:10
Description Scattered clouds
Wind 6 km/h from South (190°)
Cloud Cover 35%
Precipitation Rain: none, Snow: none
Sunrise 07:32
Sunset 17:49
Lounges Aspire Lounge, Terminal 2
Rotations During the last 90 days there were
55 flights from LHR
54 flights to LHR



Support Speedbird Online

© 2017-2023 Speedbird Online